createdAt,value
2019-05-22T00:02:37.757Z,28.83
2019-05-22T00:05:24.893Z,30.60
2019-05-22T00:07:55.331Z,39.47
2019-05-22T00:10:28.318Z,34.77
2019-05-22T00:12:59.118Z,35.20
2019-05-22T00:15:30.199Z,36.27
2019-05-22T00:18:01.820Z,32.80
2019-05-22T00:20:31.854Z,36.70
2019-05-22T00:23:04.623Z,31.60
2019-05-22T00:25:35.719Z,31.03
2019-05-22T00:28:06.697Z,29.13
2019-05-22T00:30:39.000Z,28.80
2019-05-22T00:33:09.710Z,32.87
2019-05-22T00:35:39.829Z,33.60
2019-05-22T00:38:09.499Z,32.30
2019-05-22T00:40:45.218Z,33.03
2019-05-22T00:43:17.050Z,34.10
2019-05-22T00:45:49.262Z,34.00
2019-05-22T00:48:23.553Z,28.37
2019-05-22T00:51:10.044Z,26.80
2019-05-22T00:53:51.965Z,30.40
2019-05-22T00:56:49.946Z,29.30
2019-05-22T00:59:24.804Z,26.47
2019-05-22T01:01:55.610Z,31.67
2019-05-22T01:04:31.923Z,27.07
2019-05-22T01:07:04.762Z,27.37
2019-05-22T01:09:41.743Z,29.40
2019-05-22T01:12:19.571Z,29.07
2019-05-22T01:14:50.376Z,27.10
2019-05-22T01:17:21.668Z,27.03
2019-05-22T01:19:54.557Z,27.03
2019-05-22T01:22:25.697Z,32.00
2019-05-22T01:24:56.838Z,34.87
2019-05-22T01:27:27.295Z,34.37
2019-05-22T01:29:57.695Z,31.50
2019-05-22T01:32:37.191Z,37.13
2019-05-22T01:35:09.102Z,36.83
2019-05-22T01:37:40.273Z,38.50
2019-05-22T01:40:19.758Z,34.60
2019-05-22T01:42:53.641Z,36.33
2019-05-22T01:46:16.557Z,36.23
2019-05-22T01:48:45.917Z,35.33
2019-05-22T01:51:16.627Z,36.00
2019-05-22T01:53:46.588Z,37.60
2019-05-22T01:56:19.043Z,36.30
2019-05-22T01:58:52.120Z,39.37
2019-05-22T02:01:24.287Z,40.80
2019-05-22T02:03:56.572Z,40.87
2019-05-22T02:06:26.688Z,41.80
2019-05-22T02:09:11.183Z,38.77
2019-05-22T02:11:40.981Z,38.77
2019-05-22T02:14:14.259Z,38.07
2019-05-22T02:16:56.033Z,34.13
2019-05-22T02:19:18.413Z,36.20
2019-05-22T02:21:49.553Z,35.03
2019-05-22T02:24:19.195Z,29.73
2019-05-22T02:26:48.708Z,27.83
2019-05-22T02:29:21.307Z,30.67
2019-05-22T02:31:55.592Z,25.77
2019-05-22T02:34:24.857Z,22.50
2019-05-22T02:36:56.044Z,22.47
2019-05-22T02:39:29.434Z,25.30
2019-05-22T02:42:05.448Z,23.67
2019-05-22T02:44:36.788Z,23.80
2019-05-22T02:47:18.716Z,23.73
2019-05-22T02:49:40.147Z,27.40
2019-05-22T02:52:10.162Z,22.67
2019-05-22T02:54:39.923Z,24.33
2019-05-22T02:57:11.718Z,27.47
2019-05-22T02:59:43.416Z,26.90
2019-05-22T03:02:14.472Z,23.70
2019-05-22T03:04:58.236Z,26.27
2019-05-22T03:07:28.831Z,22.33
2019-05-22T03:09:59.456Z,22.93
2019-05-22T03:12:32.468Z,25.87
2019-05-22T03:15:04.078Z,26.17
2019-05-22T03:17:35.106Z,23.43
2019-05-22T03:20:18.766Z,22.10
2019-05-22T03:23:14.589Z,19.07
2019-05-22T03:25:44.683Z,17.40
2019-05-22T03:28:15.056Z,21.17
2019-05-22T03:30:47.258Z,23.53
2019-05-22T03:33:17.745Z,22.43
2019-05-22T03:35:50.799Z,19.33
2019-05-22T03:38:21.359Z,21.40
2019-05-22T03:40:52.366Z,19.93
2019-05-22T03:43:24.430Z,22.27
2019-05-22T03:45:56.251Z,22.87
2019-05-22T03:48:27.521Z,22.50
2019-05-22T03:51:00.709Z,17.17
2019-05-22T03:53:30.501Z,19.60
2019-05-22T03:56:00.817Z,23.30
2019-05-22T03:58:31.118Z,24.40
2019-05-22T04:01:03.567Z,25.73
2019-05-22T04:03:32.949Z,25.10
2019-05-22T04:06:04.494Z,24.63
2019-05-22T04:08:34.774Z,30.40
2019-05-22T04:11:07.457Z,30.00
2019-05-22T04:13:37.695Z,27.70
2019-05-22T04:16:10.619Z,29.03
2019-05-22T04:18:40.697Z,27.97
2019-05-22T04:21:10.138Z,28.90
2019-05-22T04:23:39.933Z,27.00
2019-05-22T04:26:11.873Z,29.33
2019-05-22T04:28:49.146Z,32.00
2019-05-22T04:31:19.689Z,27.77
2019-05-22T04:33:49.331Z,29.63
2019-05-22T04:36:19.915Z,30.07
2019-05-22T04:38:49.627Z,32.67
2019-05-22T04:41:19.480Z,32.30
2019-05-22T04:43:49.638Z,31.50
2019-05-22T04:46:20.039Z,45.33
2019-05-22T04:48:49.821Z,27.97
2019-05-22T04:51:31.989Z,33.07
2019-05-22T04:54:01.529Z,29.10
2019-05-22T04:56:31.968Z,27.90
2019-05-22T04:59:02.650Z,29.40
2019-05-22T05:01:32.027Z,31.17
2019-05-22T05:04:02.980Z,36.00
2019-05-22T05:06:35.651Z,31.87
2019-05-22T05:09:08.030Z,31.27
2019-05-22T05:11:37.567Z,36.90
2019-05-22T05:14:06.833Z,32.60
2019-05-22T05:16:36.012Z,36.53
2019-05-22T05:19:05.802Z,39.33
2019-05-22T05:24:10.962Z,40.87
2019-05-22T05:26:40.691Z,37.90
2019-05-22T05:31:42.917Z,37.33
2019-05-22T05:34:36.054Z,34.47
2019-05-22T05:37:08.125Z,32.20
2019-05-22T05:40:19.147Z,35.13
2019-05-22T05:42:48.346Z,26.87
2019-05-22T05:45:17.887Z,23.63
2019-05-22T05:47:47.489Z,25.50
2019-05-22T05:50:18.004Z,27.17
2019-05-22T05:52:48.054Z,18.67
2019-05-22T05:55:17.627Z,24.00
2019-05-22T05:58:19.873Z,22.53
2019-05-22T06:00:54.270Z,21.07
2019-05-22T06:03:34.670Z,21.50
2019-05-22T06:06:14.455Z,30.27
2019-05-22T06:08:45.534Z,41.40
2019-05-22T06:11:45.422Z,39.07
2019-05-22T06:14:22.345Z,42.53
2019-05-22T06:17:44.423Z,36.43
2019-05-22T06:20:19.352Z,35.40
2019-05-22T06:23:46.224Z,26.70
2019-05-22T06:26:51.158Z,28.97
2019-05-22T06:29:21.931Z,28.07
2019-05-22T06:32:43.272Z,29.93
2019-05-22T06:35:13.582Z,30.50
2019-05-22T06:37:51.915Z,30.50
2019-05-22T06:40:21.338Z,35.93
2019-05-22T06:43:32.196Z,42.20
2019-05-22T06:46:01.768Z,50.10
2019-05-22T06:48:31.161Z,44.20
2019-05-22T06:51:00.782Z,43.57
2019-05-22T06:53:30.016Z,41.90
2019-05-22T06:56:01.142Z,44.77
2019-05-22T06:58:30.898Z,43.77
2019-05-22T07:01:00.346Z,49.57
2019-05-22T07:03:30.010Z,36.13
2019-05-22T07:05:59.405Z,43.00
2019-05-22T07:08:31.666Z,36.57
2019-05-22T07:11:02.850Z,39.83
2019-05-22T07:13:32.397Z,37.30
2019-05-22T07:16:03.617Z,31.03
2019-05-22T07:18:34.097Z,34.00
2019-05-22T07:21:03.586Z,39.37
2019-05-22T07:23:34.714Z,44.30
2019-05-22T07:26:05.990Z,44.27
2019-05-22T07:28:37.869Z,41.93
2019-05-22T07:31:07.484Z,45.80
2019-05-22T07:33:37.147Z,44.53
2019-05-22T07:36:10.911Z,43.90
2019-05-22T07:38:38.432Z,46.60
2019-05-22T07:41:09.763Z,40.47
2019-05-22T07:43:41.651Z,38.67
2019-05-22T07:46:11.448Z,44.53
2019-05-22T07:48:41.218Z,41.23
2019-05-22T07:51:11.383Z,49.63
2019-05-22T07:53:41.963Z,41.67
2019-05-22T07:56:11.446Z,42.33
2019-05-22T07:58:41.518Z,40.27
2019-05-22T08:01:10.788Z,41.37
2019-05-22T08:03:43.655Z,44.50
2019-05-22T08:06:13.241Z,48.10
2019-05-22T08:08:45.303Z,39.33
2019-05-22T08:11:15.936Z,39.80
2019-05-22T08:13:45.725Z,39.97
2019-05-22T08:16:16.005Z,43.70
2019-05-22T08:18:46.024Z,45.83
2019-05-22T08:21:15.954Z,39.53
2019-05-22T08:23:45.388Z,44.70
2019-05-22T08:26:16.809Z,41.17
2019-05-22T08:28:46.151Z,41.80
2019-05-22T08:31:18.088Z,37.90
2019-05-22T08:33:47.658Z,40.93
2019-05-22T08:36:17.371Z,39.20
2019-05-22T08:38:47.755Z,35.27
2019-05-22T08:41:20.897Z,38.83
2019-05-22T08:44:13.811Z,36.13
2019-05-22T08:46:23.009Z,35.53
2019-05-22T08:48:53.190Z,37.10
2019-05-22T08:51:22.657Z,31.40
2019-05-22T08:53:53.177Z,33.13
2019-05-22T08:56:23.824Z,35.33
2019-05-22T08:58:54.262Z,33.90
2019-05-22T09:01:23.907Z,32.80
2019-05-22T09:03:53.538Z,25.63
2019-05-22T09:06:22.913Z,26.43
2019-05-22T09:08:52.317Z,26.00
2019-05-22T09:11:21.587Z,23.63
2019-05-22T09:13:50.891Z,26.27
2019-05-22T09:16:21.318Z,29.30
2019-05-22T09:18:51.225Z,21.77
2019-05-22T09:21:21.052Z,26.13
2019-05-22T09:23:50.272Z,27.40
2019-05-22T09:26:19.888Z,27.03
2019-05-22T09:28:49.551Z,30.30
2019-05-22T09:31:19.757Z,32.57
2019-05-22T09:33:49.364Z,30.40
2019-05-22T09:36:18.609Z,29.70
2019-05-22T09:38:51.963Z,30.77
2019-05-22T09:41:19.956Z,28.57
2019-05-22T09:43:49.365Z,29.43
2019-05-22T09:46:18.634Z,33.93
2019-05-22T09:48:48.039Z,27.63
2019-05-22T09:51:17.395Z,31.63
2019-05-22T09:53:47.796Z,28.33
2019-05-22T09:56:17.114Z,28.27
2019-05-22T09:58:46.454Z,24.70
2019-05-22T10:01:17.365Z,25.23
2019-05-22T10:03:46.989Z,25.77
2019-05-22T10:06:16.509Z,30.93
2019-05-22T10:08:45.692Z,25.57
2019-05-22T10:11:15.137Z,30.93
2019-05-22T10:13:44.644Z,30.57
2019-05-22T10:16:14.042Z,27.20
2019-05-22T10:18:43.317Z,25.13
2019-05-22T10:21:13.099Z,31.60
2019-05-22T10:23:43.722Z,26.50
2019-05-22T10:26:13.629Z,26.23
2019-05-22T10:28:42.900Z,32.50
2019-05-22T10:31:15.489Z,27.77
2019-05-22T10:33:44.039Z,31.50
2019-05-22T10:36:13.701Z,31.73
2019-05-22T10:38:43.606Z,27.80
2019-05-22T10:41:13.336Z,31.83
2019-05-22T10:43:42.711Z,31.07
2019-05-22T10:46:13.940Z,28.70
2019-05-22T10:48:43.282Z,32.07
2019-05-22T10:51:13.026Z,25.77
2019-05-22T10:53:42.896Z,27.40
2019-05-22T10:56:12.194Z,33.23
2019-05-22T10:58:41.545Z,35.50
2019-05-22T11:01:11.129Z,39.20
2019-05-22T11:03:40.656Z,41.80
2019-05-22T11:06:09.945Z,32.50
2019-05-22T11:08:40.683Z,41.47
2019-05-22T11:11:10.178Z,36.20
2019-05-22T11:13:40.418Z,33.00
2019-05-22T11:16:10.345Z,33.40
2019-05-22T11:18:40.595Z,25.63
2019-05-22T11:21:10.402Z,33.50
2019-05-22T11:23:51.385Z,35.00
2019-05-22T11:26:11.953Z,37.17
2019-05-22T11:28:42.311Z,32.83
2019-05-22T11:31:11.825Z,32.33
2019-05-22T11:33:41.359Z,28.40
2019-05-22T11:36:11.542Z,25.83
2019-05-22T11:38:40.983Z,24.20
2019-05-22T11:41:11.315Z,28.27
2019-05-22T11:43:40.522Z,22.57
2019-05-22T11:46:10.136Z,27.70
2019-05-22T11:48:39.548Z,27.67
2019-05-22T11:51:09.092Z,21.67
2019-05-22T11:53:38.341Z,22.53
2019-05-22T11:56:07.647Z,23.40
2019-05-22T11:58:36.941Z,30.57
2019-05-22T12:01:06.653Z,21.30
2019-05-22T12:03:36.117Z,20.03
2019-05-22T12:06:05.928Z,20.40
2019-05-22T12:08:35.756Z,26.00
2019-05-22T12:11:07.516Z,20.53
2019-05-22T12:13:37.095Z,25.60
2019-05-22T12:16:07.279Z,22.50
2019-05-22T12:18:37.235Z,26.53
2019-05-22T12:21:06.952Z,22.13
2019-05-22T12:23:36.584Z,27.10
2019-05-22T12:26:06.737Z,24.33
2019-05-22T12:28:36.117Z,23.93
2019-05-22T12:31:06.251Z,24.83
2019-05-22T12:33:35.599Z,24.33
2019-05-22T12:36:06.405Z,23.03
2019-05-22T12:38:36.367Z,21.43
2019-05-22T12:41:06.362Z,25.23
2019-05-22T12:43:36.113Z,25.10
2019-05-22T12:46:06.417Z,24.00
2019-05-22T12:48:36.558Z,20.13
2019-05-22T12:51:06.472Z,22.07
2019-05-22T12:53:36.640Z,23.77
2019-05-22T12:56:06.444Z,19.37
2019-05-22T12:58:35.884Z,20.77
2019-05-22T13:01:06.237Z,19.87
2019-05-22T13:03:36.442Z,20.33
2019-05-22T13:06:08.786Z,18.60
2019-05-22T13:08:41.127Z,21.07
2019-05-22T13:11:10.686Z,22.00
2019-05-22T13:13:40.600Z,22.27
2019-05-22T13:16:10.663Z,18.20
2019-05-22T13:18:40.711Z,21.90
2019-05-22T13:21:13.010Z,20.40
2019-05-22T13:23:44.796Z,27.77
2019-05-22T13:26:14.197Z,21.37
2019-05-22T13:28:46.113Z,24.50
2019-05-22T13:31:16.664Z,20.47
2019-05-22T13:33:47.658Z,18.73
2019-05-22T13:36:18.994Z,19.53
2019-05-22T13:38:49.493Z,17.63
2019-05-22T13:41:19.183Z,16.63
2019-05-22T13:43:49.735Z,19.00
2019-05-22T13:46:19.285Z,15.10
2019-05-22T13:48:49.090Z,17.73
2019-05-22T13:51:18.917Z,17.33
2019-05-22T13:53:49.738Z,22.33
2019-05-22T13:56:25.196Z,24.00
2019-05-22T13:59:04.499Z,22.90
2019-05-22T14:01:40.650Z,22.50
2019-05-22T14:04:10.081Z,22.23
2019-05-22T14:06:39.584Z,17.13
2019-05-22T14:09:11.408Z,19.13
2019-05-22T14:11:41.761Z,24.20
2019-05-22T14:14:11.482Z,20.43
2019-05-22T14:16:48.495Z,22.63
2019-05-22T14:19:12.785Z,21.67
2019-05-22T14:21:50.135Z,28.20
2019-05-22T14:24:13.782Z,23.37
2019-05-22T14:26:43.191Z,22.97
2019-05-22T14:29:12.771Z,17.47
2019-05-22T14:31:42.785Z,18.73
2019-05-22T14:34:22.253Z,22.03
2019-05-22T14:36:52.192Z,21.80
2019-05-22T14:39:22.923Z,23.77
2019-05-22T14:41:54.775Z,22.77
2019-05-22T14:44:24.330Z,23.03
2019-05-22T14:46:53.765Z,25.37
2019-05-22T14:49:23.313Z,27.27
2019-05-22T14:51:52.949Z,22.73
2019-05-22T14:54:24.109Z,20.77
2019-05-22T14:56:55.258Z,17.17
2019-05-22T14:59:24.705Z,25.23
2019-05-22T15:01:54.048Z,25.40
2019-05-22T15:04:23.837Z,22.43
2019-05-22T15:06:53.969Z,24.00
2019-05-22T15:09:23.329Z,25.63
2019-05-22T15:11:52.678Z,15.50
2019-05-22T15:14:22.954Z,27.00
2019-05-22T15:16:52.581Z,18.40
2019-05-22T15:19:22.843Z,32.63
2019-05-22T15:21:55.317Z,25.30
2019-05-22T15:24:26.312Z,28.13
2019-05-22T15:26:56.334Z,25.27
2019-05-22T15:29:26.031Z,30.87
2019-05-22T15:31:55.401Z,27.30
2019-05-22T15:34:25.397Z,25.63
2019-05-22T15:36:56.548Z,28.87
2019-05-22T15:39:27.755Z,27.07
2019-05-22T15:41:57.039Z,29.90
2019-05-22T15:44:27.874Z,29.33
2019-05-22T15:46:57.154Z,34.00
2019-05-22T15:49:27.047Z,29.07
2019-05-22T15:51:56.508Z,31.77
2019-05-22T15:54:28.566Z,30.57
2019-05-22T15:56:59.162Z,32.17
2019-05-22T15:59:30.767Z,36.03
2019-05-22T16:02:02.615Z,29.87
2019-05-22T16:04:32.528Z,38.03
2019-05-22T16:07:05.848Z,34.70
2019-05-22T16:09:35.806Z,33.97
2019-05-22T16:12:07.292Z,36.57
2019-05-22T16:14:37.996Z,33.70
2019-05-22T16:17:08.727Z,42.23
2019-05-22T16:19:39.376Z,30.23
2019-05-22T16:22:10.793Z,33.50
2019-05-22T16:24:41.810Z,36.93
2019-05-22T16:27:12.659Z,34.47
2019-05-22T16:29:46.231Z,37.50
2019-05-22T16:32:19.014Z,36.50
2019-05-22T16:34:48.929Z,28.93
2019-05-22T16:37:18.811Z,30.40
2019-05-22T16:39:50.495Z,38.83
2019-05-22T16:42:20.584Z,36.47
2019-05-22T16:44:50.162Z,42.70
2019-05-22T16:47:21.681Z,39.93
2019-05-22T16:49:53.017Z,37.33
2019-05-22T16:52:29.829Z,28.13
2019-05-22T16:55:19.474Z,37.20
2019-05-22T16:57:49.898Z,34.90
2019-05-22T17:00:19.890Z,36.50
2019-05-22T17:02:49.943Z,30.03
2019-05-22T17:05:22.481Z,36.73
2019-05-22T17:07:52.688Z,32.90
2019-05-22T17:10:23.519Z,38.00
2019-05-22T17:12:53.695Z,38.93
2019-05-22T17:15:24.729Z,35.80
2019-05-22T17:17:54.156Z,27.83
2019-05-22T17:20:27.545Z,33.40
2019-05-22T17:22:57.907Z,35.50
2019-05-22T17:25:28.011Z,33.73
2019-05-22T17:27:57.347Z,29.07
2019-05-22T17:30:27.439Z,47.83
2019-05-22T17:32:59.267Z,31.53
2019-05-22T17:35:29.710Z,38.53
2019-05-22T17:37:59.336Z,34.10
2019-05-22T17:40:29.187Z,35.80
2019-05-22T17:42:59.294Z,37.13
2019-05-22T17:45:29.142Z,34.10
2019-05-22T17:47:58.906Z,42.33
2019-05-22T17:50:29.616Z,34.20
2019-05-22T17:52:59.922Z,33.93
2019-05-22T17:55:30.093Z,35.10
2019-05-22T17:58:00.010Z,45.93
2019-05-22T18:00:35.468Z,39.13
2019-05-22T18:03:05.531Z,38.87
2019-05-22T18:05:35.453Z,38.30
2019-05-22T18:08:05.868Z,42.17
2019-05-22T18:10:40.379Z,33.20
2019-05-22T18:13:09.923Z,38.40
2019-05-22T18:15:40.658Z,34.47
2019-05-22T18:18:10.609Z,35.53
2019-05-22T18:20:43.611Z,40.53
2019-05-22T18:23:11.410Z,43.13
2019-05-22T18:25:40.732Z,40.60
2019-05-22T18:28:13.501Z,41.23
2019-05-22T18:30:43.703Z,35.50
2019-05-22T18:33:14.275Z,37.57
2019-05-22T18:35:43.751Z,34.07
2019-05-22T18:38:13.031Z,41.40
2019-05-22T18:40:42.456Z,34.07
2019-05-22T18:43:11.976Z,31.53
2019-05-22T18:45:42.090Z,39.43
2019-05-22T18:48:11.405Z,35.97
2019-05-22T18:50:40.804Z,32.47
2019-05-22T18:53:10.380Z,37.53
2019-05-22T18:55:39.612Z,36.43
2019-05-22T18:58:09.165Z,35.77
2019-05-22T19:00:39.411Z,39.93
2019-05-22T19:03:08.685Z,37.70
2019-05-22T19:05:38.927Z,39.67
2019-05-22T19:08:08.639Z,36.87
2019-05-22T19:10:38.226Z,39.07
2019-05-22T19:13:08.037Z,33.67
2019-05-22T19:15:37.438Z,40.30
2019-05-22T19:18:07.666Z,39.50
2019-05-22T19:20:37.071Z,35.10
2019-05-22T19:23:07.834Z,44.03
2019-05-22T19:25:37.264Z,33.40
2019-05-22T19:28:06.947Z,30.50
2019-05-22T19:30:36.559Z,30.70
2019-05-22T19:33:06.162Z,36.70
2019-05-22T19:35:35.485Z,33.83
2019-05-22T19:38:05.094Z,39.73
2019-05-22T19:40:35.454Z,34.60
2019-05-22T19:43:05.484Z,33.43
2019-05-22T19:45:35.834Z,28.40
2019-05-22T19:48:05.928Z,26.73
2019-05-22T19:50:35.707Z,33.63
2019-05-22T19:53:18.113Z,27.80
2019-05-22T19:55:36.828Z,29.90
2019-05-22T19:58:07.197Z,32.40
2019-05-22T20:00:36.819Z,26.00
2019-05-22T20:03:07.286Z,30.00
2019-05-22T20:05:36.954Z,32.07
2019-05-22T20:08:07.202Z,29.23
2019-05-22T20:10:37.470Z,29.30
2019-05-22T20:13:07.958Z,27.40
2019-05-22T20:15:38.578Z,27.90
2019-05-22T20:18:08.509Z,28.23
2019-05-22T20:20:38.358Z,24.57
2019-05-22T20:23:09.918Z,27.90
2019-05-22T20:25:39.322Z,35.50
2019-05-22T20:28:11.270Z,33.43
2019-05-22T20:30:41.774Z,29.53
2019-05-22T20:33:11.559Z,28.07
2019-05-22T20:35:41.328Z,27.20
2019-05-22T20:38:11.485Z,26.03
2019-05-22T20:40:41.648Z,27.50
2019-05-22T20:43:12.285Z,29.00
2019-05-22T20:45:45.183Z,29.60
2019-05-22T20:48:21.868Z,28.43
2019-05-22T20:50:51.549Z,35.60
2019-05-22T20:53:21.834Z,26.43
2019-05-22T20:55:52.441Z,25.87
2019-05-22T20:58:23.004Z,28.83
2019-05-22T21:00:53.295Z,31.77
2019-05-22T21:03:23.139Z,26.53
2019-05-22T21:05:54.175Z,26.67
2019-05-22T21:08:26.762Z,28.53
2019-05-22T21:10:58.751Z,23.40
2019-05-22T21:13:28.477Z,23.50
2019-05-22T21:15:58.601Z,25.93
2019-05-22T21:18:34.530Z,23.47
2019-05-22T21:21:04.134Z,23.63
2019-05-22T21:23:34.179Z,22.67
2019-05-22T21:26:03.953Z,18.93
2019-05-22T21:28:33.654Z,19.93
2019-05-22T21:31:04.113Z,23.23
2019-05-22T21:33:33.738Z,18.67
2019-05-22T21:36:04.267Z,19.43
2019-05-22T21:38:34.343Z,16.17
2019-05-22T21:41:04.258Z,17.87
2019-05-22T21:43:33.551Z,21.40
2019-05-22T21:46:03.078Z,17.10
2019-05-22T21:48:33.741Z,22.00
2019-05-22T21:51:03.077Z,21.63
2019-05-22T21:53:32.648Z,18.30
2019-05-22T21:56:05.740Z,16.33
2019-05-22T21:58:33.301Z,18.10
2019-05-22T22:01:21.422Z,18.33
2019-05-22T22:03:58.912Z,17.33
2019-05-22T22:06:33.041Z,19.23
2019-05-22T22:09:00.513Z,18.73
2019-05-22T22:11:49.597Z,23.47
2019-05-22T22:14:19.253Z,17.40
2019-05-22T22:16:50.423Z,26.93
2019-05-22T22:19:20.727Z,17.30
2019-05-22T22:21:50.333Z,18.67
2019-05-22T22:24:19.972Z,25.67
2019-05-22T22:26:52.529Z,21.90
2019-05-22T22:29:21.902Z,20.53
2019-05-22T22:31:52.768Z,19.60
2019-05-22T22:34:27.652Z,19.07
2019-05-22T22:36:58.026Z,23.90
2019-05-22T22:39:29.881Z,19.83
2019-05-22T22:42:00.986Z,14.17
2019-05-22T22:44:30.783Z,16.20
2019-05-22T22:47:06.278Z,19.60
2019-05-22T22:49:37.720Z,20.63
2019-05-22T22:52:07.784Z,14.97
2019-05-22T22:54:37.057Z,17.87
2019-05-22T22:57:07.045Z,18.47
2019-05-22T22:59:36.524Z,19.73
2019-05-22T23:02:09.482Z,18.33
2019-05-22T23:04:39.643Z,17.17
2019-05-22T23:07:09.795Z,15.90
2019-05-22T23:09:44.317Z,16.50
2019-05-22T23:12:16.185Z,18.43
2019-05-22T23:14:54.862Z,17.43
2019-05-22T23:17:31.561Z,16.17
2019-05-22T23:19:59.897Z,15.47
2019-05-22T23:22:30.063Z,18.20
2019-05-22T23:25:00.555Z,19.63
2019-05-22T23:27:33.754Z,20.20
2019-05-22T23:30:03.000Z,17.10
2019-05-22T23:32:33.531Z,19.10
2019-05-22T23:35:02.840Z,18.00
2019-05-22T23:37:32.831Z,16.63
2019-05-22T23:40:02.721Z,19.67
2019-05-22T23:42:39.614Z,18.00
2019-05-22T23:45:14.760Z,19.30
2019-05-22T23:48:03.529Z,16.90
2019-05-22T23:50:35.297Z,14.77
2019-05-22T23:53:05.032Z,15.10
2019-05-22T23:55:35.361Z,19.30
2019-05-22T23:58:07.023Z,17.50
